Time;durP1;ratioP1;P1;durP2;ratioP2;P2;SDS_P1;SDS_P2;PMS_P1;PMS_P2;Temp;Humidity;BMP_temperature;BMP_pressure;BME280_temperature;BME280_humidity;BME280_pressure;Samples;Min_cycle;Max_cycle;Signal;HPM_P1;HPM_P2
2021/04/12 00:00:29;;;;;;;12.43;7.03;;;3.60;97.30;;;;;;5015242;28;20405;-85
2021/04/12 00:03:13;;;;;;;12.30;7.00;;;3.50;97.30;;;;;;5014122;28;20463;-85
2021/04/12 00:05:51;;;;;;;15.27;8.80;;;3.50;97.30;;;;;;4998512;28;21012;-84
2021/04/12 00:08:23;;;;;;;15.93;9.23;;;3.40;97.30;;;;;;5021314;28;20436;-85
2021/04/12 00:10:54;;;;;;;16.30;9.70;;;3.40;97.30;;;;;;5015362;28;20491;-83
2021/04/12 00:13:45;;;;;;;18.83;10.77;;;3.30;97.30;;;;;;4996733;28;20408;-84
2021/04/12 00:16:30;;;;;;;20.30;9.40;;;3.20;97.30;;;;;;4996730;28;20416;-85
2021/04/12 00:19:04;;;;;;;19.93;10.37;;;3.20;97.30;;;;;;4996625;28;20447;-85
2021/04/12 00:21:40;;;;;;;17.40;10.37;;;3.20;97.30;;;;;;4996813;28;20404;-84
2021/04/12 00:24:17;;;;;;;16.23;9.30;;;3.10;97.30;;;;;;4996356;28;20448;-84
2021/04/12 00:26:50;;;;;;;19.00;9.70;;;3.10;97.30;;;;;;5014234;28;20392;-85
2021/04/12 00:29:24;;;;;;;18.07;9.70;;;3.00;97.30;;;;;;4996744;28;20431;-84
2021/04/12 00:32:02;;;;;;;15.93;8.60;;;3.00;97.30;;;;;;4996225;28;20543;-85
2021/04/12 00:34:50;;;;;;;19.77;10.87;;;2.90;97.30;;;;;;4996786;28;20910;-85
2021/04/12 00:37:50;;;;;;;18.47;9.70;;;2.90;97.30;;;;;;4996197;28;20519;-85
2021/04/12 00:40:53;;;;;;;17.10;9.37;;;3.00;97.30;;;;;;4996512;28;20491;-85
2021/04/12 00:43:48;;;;;;;18.40;10.00;;;2.90;97.30;;;;;;5012927;28;21119;-84
2021/04/12 00:46:53;;;;;;;15.87;8.53;;;2.90;97.30;;;;;;4969596;28;20451;-85
2021/04/12 00:49:41;;;;;;;16.70;9.50;;;2.80;97.30;;;;;;4989045;28;20471;-85
2021/04/12 00:52:25;;;;;;;15.80;9.43;;;2.80;97.30;;;;;;4998024;28;20423;-84
2021/04/12 00:55:26;;;;;;;19.07;9.83;;;2.80;97.30;;;;;;5014528;28;20405;-85
2021/04/12 00:58:22;;;;;;;16.30;8.63;;;2.80;97.30;;;;;;5014043;28;20539;-85
2021/04/12 01:01:13;;;;;;;15.43;8.07;;;2.70;97.30;;;;;;5014068;28;20872;-85
2021/04/12 01:03:49;;;;;;;15.53;8.53;;;2.70;97.30;;;;;;5013876;28;20542;-85
2021/04/12 01:06:27;;;;;;;13.73;7.77;;;2.70;97.30;;;;;;5014066;28;20419;-85
2021/04/12 01:09:17;;;;;;;13.33;7.70;;;2.70;97.30;;;;;;4997365;28;21107;-84
2021/04/12 01:11:55;;;;;;;15.67;8.30;;;2.70;97.30;;;;;;5013408;28;20415;-84
2021/04/12 01:14:23;;;;;;;15.90;8.10;;;2.70;97.30;;;;;;4997218;28;20451;-85
2021/04/12 01:17:13;;;;;;;14.17;7.60;;;2.60;97.30;;;;;;4996614;28;20427;-83
2021/04/12 01:20:17;;;;;;;10.23;6.13;;;2.60;97.30;;;;;;5013121;28;20436;-86
2021/04/12 01:23:01;;;;;;;14.07;7.70;;;2.60;97.30;;;;;;4996229;28;20448;-85
2021/04/12 01:26:02;;;;;;;12.47;6.97;;;2.60;97.30;;;;;;5013960;28;20919;-85
2021/04/12 01:28:52;;;;;;;9.93;6.40;;;2.60;97.30;;;;;;4930772;28;20432;-85
2021/04/12 01:31:55;;;;;;;13.07;7.37;;;2.60;97.30;;;;;;5012909;28;20551;-85
2021/04/12 01:34:59;;;;;;;11.90;6.90;;;2.50;97.30;;;;;;5012735;28;20989;-85
2021/04/12 01:37:27;;;;;;;12.27;7.17;;;2.50;97.30;;;;;;5011935;28;20467;-85
2021/04/12 01:40:19;;;;;;;10.23;6.37;;;2.40;97.30;;;;;;5011744;28;20427;-85
2021/04/12 01:43:01;;;;;;;13.00;8.07;;;2.40;97.30;;;;;;4965502;28;20942;-85
2021/04/12 01:45:37;;;;;;;14.13;7.47;;;2.30;97.30;;;;;;5012918;28;20431;-84
2021/04/12 01:48:09;;;;;;;13.20;7.00;;;2.30;97.30;;;;;;4995567;28;20806;-84
2021/04/12 01:51:12;;;;;;;12.50;7.43;;;2.30;97.30;;;;;;5012160;28;20426;-84
2021/04/12 01:53:50;;;;;;;14.90;8.07;;;2.40;97.30;;;;;;5012180;28;20416;-83
2021/04/12 01:56:21;;;;;;;15.27;8.10;;;2.40;97.30;;;;;;5012070;28;20423;-85
2021/04/12 01:59:14;;;;;;;14.83;8.53;;;2.40;97.30;;;;;;5011985;28;20454;-84
2021/04/12 02:02:05;;;;;;;15.93;8.53;;;2.40;97.30;;;;;;4997932;28;20465;-84
2021/04/12 02:05:01;;;;;;;14.27;8.50;;;2.40;97.30;;;;;;5016151;28;20503;-84
2021/04/12 02:07:48;;;;;;;14.40;8.50;;;2.30;97.30;;;;;;5016921;28;20763;-84
2021/04/12 02:10:35;;;;;;;16.13;8.70;;;2.30;97.30;;;;;;5017298;28;20438;-84
2021/04/12 02:13:15;;;;;;;17.00;9.77;;;2.20;97.30;;;;;;5017766;28;20455;-84
2021/04/12 02:15:41;;;;;;;17.10;8.93;;;2.30;97.30;;;;;;5001768;28;20496;-84
2021/04/12 02:18:30;;;;;;;14.03;9.30;;;2.30;97.30;;;;;;5001117;28;20471;-84
2021/04/12 02:21:05;;;;;;;21.33;10.23;;;2.30;97.30;;;;;;5001403;28;20162;-84
2021/04/12 02:23:54;;;;;;;21.07;10.47;;;2.30;97.30;;;;;;5000850;28;20813;-85
2021/04/12 02:26:58;;;;;;;18.33;10.20;;;2.20;97.30;;;;;;5001148;28;20483;-84
2021/04/12 02:29:39;;;;;;;22.23;10.20;;;2.30;97.30;;;;;;4970851;28;20466;-84
2021/04/12 02:32:11;;;;;;;16.70;8.67;;;2.30;97.30;;;;;;4999860;28;20546;-84
2021/04/12 02:35:04;;;;;;;21.43;11.40;;;2.30;97.30;;;;;;5016879;28;20416;-84
2021/04/12 02:37:58;;;;;;;22.67;11.33;;;2.20;97.30;;;;;;5000637;28;20512;-84
2021/04/12 02:41:02;;;;;;;22.13;10.53;;;2.20;97.30;;;;;;5000400;28;20404;-84
2021/04/12 02:43:50;;;;;;;22.60;11.20;;;2.20;97.30;;;;;;5000254;28;20454;-84
2021/04/12 02:46:54;;;;;;;22.13;12.30;;;2.20;97.30;;;;;;4992584;28;20447;-84
2021/04/12 02:49:38;;;;;;;23.43;10.27;;;2.20;97.30;;;;;;5000851;28;20529;-84
2021/04/12 02:52:49;;;;;;;20.37;11.17;;;2.30;97.30;;;;;;5001012;28;20415;-84
2021/04/12 02:55:46;;;;;;;23.67;11.07;;;2.30;97.30;;;;;;5017030;28;20454;-84
2021/04/12 02:58:28;;;;;;;25.37;11.50;;;2.20;97.30;;;;;;4999499;28;20436;-84
2021/04/12 03:01:09;;;;;;;23.13;11.43;;;2.10;97.30;;;;;;4999358;28;20404;-84
2021/04/12 03:03:46;;;;;;;23.13;11.00;;;2.10;97.30;;;;;;4999455;28;21017;-84
2021/04/12 03:06:39;;;;;;;21.00;10.73;;;2.00;97.30;;;;;;5015953;28;20412;-84
2021/04/12 03:09:14;;;;;;;22.37;11.33;;;2.00;97.30;;;;;;4999592;28;20439;-84
2021/04/12 03:11:49;;;;;;;22.67;11.80;;;1.90;97.30;;;;;;5016777;28;20984;-84
2021/04/12 03:14:45;;;;;;;24.53;11.37;;;1.90;97.30;;;;;;4997788;28;20428;-84
2021/04/12 03:17:43;;;;;;;24.83;11.63;;;1.90;97.30;;;;;;4998954;28;20420;-84
2021/04/12 03:20:20;;;;;;;25.10;11.20;;;1.90;97.30;;;;;;4962770;28;20477;-84
2021/04/12 03:23:23;;;;;;;23.70;11.73;;;1.90;97.30;;;;;;5000067;28;20448;-83
2021/04/12 03:26:15;;;;;;;24.87;11.87;;;1.90;97.30;;;;;;5017729;28;20396;-85
2021/04/12 03:28:54;;;;;;;22.20;11.17;;;1.90;97.30;;;;;;5000430;28;20969;-83
2021/04/12 03:31:38;;;;;;;22.57;11.73;;;1.90;97.30;;;;;;5000068;28;20460;-83
2021/04/12 03:34:10;;;;;;;25.83;11.57;;;1.90;97.30;;;;;;4999850;28;20420;-82
2021/04/12 03:36:38;;;;;;;22.30;11.30;;;2.00;97.30;;;;;;5001106;28;20455;-83
2021/04/12 03:39:15;;;;;;;22.83;11.10;;;1.90;97.30;;;;;;5000924;28;21193;-84
2021/04/12 03:41:46;;;;;;;22.10;11.33;;;1.90;97.30;;;;;;5001311;28;20419;-83
2021/04/12 03:44:49;;;;;;;22.40;10.83;;;1.90;97.30;;;;;;5001184;28;20444;-83
2021/04/12 03:47:55;;;;;;;26.67;12.40;;;1.80;97.30;;;;;;5000091;28;20434;-83
2021/04/12 03:50:39;;;;;;;21.50;11.13;;;1.90;97.30;;;;;;5001471;28;20854;-83
2021/04/12 03:53:22;;;;;;;24.37;11.53;;;1.80;97.30;;;;;;5000459;28;20431;-83
2021/04/12 03:56:11;;;;;;;26.40;11.17;;;1.80;97.30;;;;;;4999978;28;20443;-84
2021/04/12 03:58:58;;;;;;;21.83;11.20;;;1.80;97.30;;;;;;4999760;28;20431;-84
2021/04/12 04:01:38;;;;;;;24.97;12.10;;;1.80;97.30;;;;;;4999954;28;20411;-84
2021/04/12 04:04:10;;;;;;;18.53;9.87;;;1.70;97.30;;;;;;5017349;28;20515;-84
2021/04/12 04:07:02;;;;;;;20.03;10.00;;;1.70;97.30;;;;;;4999667;28;20417;-84
2021/04/12 04:09:45;;;;;;;20.47;10.20;;;1.70;97.30;;;;;;4998216;28;20444;-83
2021/04/12 04:12:49;;;;;;;22.20;10.47;;;1.70;97.30;;;;;;4998556;28;20438;-84
2021/04/12 04:15:21;;;;;;;20.90;9.77;;;1.80;97.30;;;;;;4998214;28;20498;-84
2021/04/12 04:18:28;;;;;;;27.03;11.23;;;1.80;97.30;;;;;;4998053;28;20436;-83
2021/04/12 04:21:17;;;;;;;18.87;9.13;;;1.80;97.30;;;;;;4954993;28;20422;-84
2021/04/12 04:24:08;;;;;;;22.50;10.90;;;1.80;97.30;;;;;;4997196;28;20456;-84
2021/04/12 04:26:51;;;;;;;22.37;10.23;;;1.90;97.30;;;;;;4997421;28;20904;-84
2021/04/12 04:29:42;;;;;;;23.23;10.43;;;1.90;97.30;;;;;;5014858;28;20420;-84
2021/04/12 04:32:29;;;;;;;26.93;11.00;;;1.90;97.30;;;;;;4997617;28;20451;-84
2021/04/12 04:35:16;;;;;;;25.00;10.80;;;2.00;97.30;;;;;;4997522;28;20927;-83
2021/04/12 04:37:54;;;;;;;20.57;10.70;;;2.00;97.30;;;;;;4998587;28;20486;-85
2021/04/12 04:41:14;;;;;;;27.90;11.80;;;2.10;97.30;;;;;;4999136;28;20461;-84
2021/04/12 04:43:52;;;;;;;22.53;10.33;;;2.00;97.30;;;;;;4940937;29;20486;-83
2021/04/12 04:46:34;;;;;;;22.60;10.10;;;2.10;97.30;;;;;;5000164;28;20436;-84
2021/04/12 04:49:28;;;;;;;27.83;11.10;;;2.20;97.30;;;;;;4999493;28;20545;-84
2021/04/12 04:52:06;;;;;;;21.67;10.67;;;2.20;97.30;;;;;;4999842;28;20989;-84
2021/04/12 04:54:43;;;;;;;19.73;9.03;;;2.20;97.30;;;;;;4999724;28;20502;-84
2021/04/12 04:57:18;;;;;;;23.63;10.73;;;2.30;97.30;;;;;;5000359;28;20436;-84
2021/04/12 04:59:55;;;;;;;23.60;10.60;;;2.30;97.30;;;;;;4999665;28;20831;-84
2021/04/12 05:02:46;;;;;;;22.30;10.33;;;2.30;97.30;;;;;;5015012;28;20404;-83
2021/04/12 05:05:35;;;;;;;28.30;10.60;;;2.30;97.30;;;;;;5015919;28;20866;-84
2021/04/12 05:08:21;;;;;;;26.67;11.50;;;2.40;97.30;;;;;;4998673;28;20437;-84
2021/04/12 05:10:56;;;;;;;25.47;10.90;;;2.40;97.30;;;;;;4998538;28;20918;-84
2021/04/12 05:13:47;;;;;;;22.57;11.23;;;2.40;97.30;;;;;;4998464;28;20514;-82
2021/04/12 05:16:42;;;;;;;26.57;12.20;;;2.50;97.30;;;;;;4998217;28;20447;-83
2021/04/12 05:19:40;;;;;;;26.10;11.07;;;2.50;97.30;;;;;;4998061;28;20514;-82
2021/04/12 05:22:32;;;;;;;27.40;11.90;;;2.60;97.30;;;;;;4995194;28;20432;-84
2021/04/12 05:25:35;;;;;;;25.13;10.50;;;2.60;97.30;;;;;;4987086;28;20823;-84
2021/04/12 05:28:15;;;;;;;26.60;10.50;;;2.70;97.30;;;;;;4997070;28;20432;-84
2021/04/12 05:31:09;;;;;;;24.27;10.63;;;2.70;97.30;;;;;;4996495;28;20415;-83
2021/04/12 05:33:44;;;;;;;27.33;9.60;;;2.80;97.30;;;;;;4996405;28;20850;-84
2021/04/12 05:36:38;;;;;;;25.23;11.67;;;2.80;97.30;;;;;;4996317;28;20416;-83
2021/04/12 05:39:16;;;;;;;24.70;11.33;;;2.90;97.30;;;;;;5010209;28;20444;-84
2021/04/12 05:42:07;;;;;;;21.27;10.47;;;3.00;97.30;;;;;;4996157;28;20506;-83
2021/04/12 05:44:53;;;;;;;25.13;10.70;;;3.10;97.30;;;;;;4995914;28;21071;-84
2021/04/12 05:47:57;;;;;;;21.00;9.97;;;3.20;97.30;;;;;;4996683;28;20495;-84
2021/04/12 05:50:57;;;;;;;22.30;11.57;;;3.30;97.30;;;;;;4996027;28;20412;-84
2021/04/12 05:53:47;;;;;;;21.13;10.77;;;3.40;97.30;;;;;;4998964;28;20459;-83
2021/04/12 05:56:15;;;;;;;22.63;9.43;;;3.40;97.30;;;;;;5024268;28;20426;-84
2021/04/12 05:59:07;;;;;;;29.03;9.97;;;3.50;97.30;;;;;;5016918;28;20466;-84
2021/04/12 06:01:51;;;;;;;21.20;8.67;;;3.50;97.30;;;;;;5014935;28;20511;-84
2021/04/12 06:04:37;;;;;;;16.43;8.60;;;3.50;97.30;;;;;;5016217;28;20478;-84
2021/04/12 06:07:31;;;;;;;14.50;8.10;;;3.60;97.30;;;;;;5015519;28;21012;-85
2021/04/12 06:10:10;;;;;;;18.43;7.53;;;3.60;97.30;;;;;;4998747;28;20482;-84
2021/04/12 06:12:47;;;;;;;15.87;7.90;;;3.70;97.30;;;;;;5015987;28;20526;-85
2021/04/12 06:15:43;;;;;;;16.60;7.37;;;3.70;97.30;;;;;;5015076;28;20407;-86
2021/04/12 06:18:47;;;;;;;16.43;7.73;;;3.80;97.30;;;;;;5020366;28;20451;-85
2021/04/12 06:21:24;;;;;;;18.43;7.30;;;3.90;97.30;;;;;;5014909;28;20989;-84
2021/04/12 06:24:30;;;;;;;14.20;7.73;;;3.90;97.30;;;;;;5032511;28;21006;-84
2021/04/12 06:27:41;;;;;;;17.97;7.60;;;3.90;97.30;;;;;;5028663;28;21384;-82
2021/04/12 06:30:25;;;;;;;13.37;6.93;;;4.00;97.30;;;;;;4955683;28;20482;-85
2021/04/12 06:33:13;;;;;;;13.13;7.43;;;4.00;97.30;;;;;;5015690;28;20546;-83
2021/04/12 06:35:44;;;;;;;13.50;7.10;;;4.10;97.30;;;;;;5004170;28;20420;-84
2021/04/12 06:38:46;;;;;;;13.83;7.00;;;4.10;97.30;;;;;;4997000;28;20797;-84
2021/04/12 06:41:20;;;;;;;12.57;7.10;;;4.10;97.30;;;;;;4998470;28;20549;-85
2021/04/12 06:44:28;;;;;;;18.03;7.43;;;4.10;97.30;;;;;;4997607;28;21010;-84
2021/04/12 06:47:27;;;;;;;12.80;6.57;;;4.10;97.30;;;;;;5015975;28;20426;-84
2021/04/12 06:50:29;;;;;;;13.03;6.30;;;4.20;97.30;;;;;;5037970;28;20497;-84
2021/04/12 06:53:19;;;;;;;14.37;6.90;;;4.20;97.30;;;;;;5039416;28;20982;-83
2021/04/12 06:55:53;;;;;;;11.20;6.47;;;4.30;97.30;;;;;;5039538;28;20426;-84
2021/04/12 06:58:56;;;;;;;13.30;6.30;;;4.40;97.30;;;;;;5040007;28;20445;-84
2021/04/12 07:01:48;;;;;;;11.40;7.10;;;4.40;97.30;;;;;;5029297;28;20429;-86
2021/04/12 07:04:29;;;;;;;16.67;6.63;;;4.30;97.30;;;;;;5016801;28;21089;-84
2021/04/12 07:07:21;;;;;;;12.27;6.40;;;4.30;97.30;;;;;;5017104;28;20844;-84
2021/04/12 07:10:05;;;;;;;18.60;6.53;;;4.30;97.30;;;;;;4999470;28;20417;-84
2021/04/12 07:12:58;;;;;;;11.17;6.40;;;4.30;97.30;;;;;;5015163;28;20419;-84
2021/04/12 07:15:51;;;;;;;15.83;7.77;;;4.30;97.30;;;;;;5016528;28;20444;-84
2021/04/12 07:18:23;;;;;;;10.77;6.40;;;4.30;97.30;;;;;;4997888;28;20442;-84
2021/04/12 07:21:30;;;;;;;12.63;6.97;;;4.40;97.30;;;;;;4998504;28;20794;-85
2021/04/12 07:24:21;;;;;;;9.73;6.03;;;4.40;97.30;;;;;;4998871;28;20454;-85
2021/04/12 07:26:52;;;;;;;13.37;6.57;;;4.40;97.30;;;;;;4998251;28;20840;-85
2021/04/12 07:29:27;;;;;;;16.07;6.83;;;4.40;97.30;;;;;;4997957;28;20511;-84
2021/04/12 07:32:20;;;;;;;12.00;6.30;;;4.50;97.30;;;;;;5002043;28;20471;-85
2021/04/12 07:35:10;;;;;;;13.17;6.63;;;4.50;97.30;;;;;;5031159;28;20491;-85
2021/04/12 07:37:58;;;;;;;13.90;6.87;;;4.60;97.30;;;;;;5013862;28;20859;-87
2021/04/12 07:40:42;;;;;;;14.10;6.40;;;4.70;97.30;;;;;;5014512;28;20806;-84
2021/04/12 07:43:30;;;;;;;10.87;6.50;;;4.70;97.30;;;;;;5031405;28;20502;-85
2021/04/12 07:46:23;;;;;;;12.50;5.60;;;4.70;97.30;;;;;;5014259;28;20451;-85
2021/04/12 07:49:27;;;;;;;11.33;6.57;;;4.70;97.30;;;;;;5013093;28;20451;-84
2021/04/12 07:52:01;;;;;;;8.07;5.73;;;4.80;97.30;;;;;;5030553;28;20415;-88
2021/04/12 07:55:00;;;;;;;14.30;6.90;;;4.90;97.30;;;;;;5013686;28;20496;-85
2021/04/12 07:57:45;;;;;;;13.47;5.93;;;4.90;97.30;;;;;;5012656;28;20483;-85
2021/04/12 08:00:47;;;;;;;14.57;6.10;;;4.90;97.30;;;;;;5002945;28;20911;-85
2021/04/12 08:03:37;;;;;;;9.33;5.37;;;4.90;97.30;;;;;;4997765;28;20884;-81
2021/04/12 08:06:31;;;;;;;8.77;5.17;;;4.90;97.30;;;;;;4997516;28;20483;-84
2021/04/12 08:09:23;;;;;;;12.07;6.43;;;4.90;97.30;;;;;;4997835;28;20446;-84
2021/04/12 08:12:21;;;;;;;11.10;6.40;;;4.90;97.30;;;;;;4997585;28;20427;-84
2021/04/12 08:15:32;;;;;;;21.37;8.30;;;4.90;97.30;;;;;;4995988;28;20710;-85
2021/04/12 08:18:37;;;;;;;13.73;7.27;;;5.00;97.30;;;;;;4898740;29;20444;-85
2021/04/12 08:21:23;;;;;;;23.33;8.27;;;5.10;97.30;;;;;;4898704;29;20508;-85
2021/04/12 08:24:26;;;;;;;12.53;6.13;;;5.10;97.30;;;;;;4982927;28;20778;-85
2021/04/12 08:26:57;;;;;;;13.40;6.10;;;5.00;97.30;;;;;;5011676;28;20422;-84
2021/04/12 08:30:20;;;;;;;10.00;6.00;;;5.00;97.30;;;;;;5001203;28;20484;-89
2021/04/12 08:33:05;;;;;;;9.03;5.63;;;5.00;97.30;;;;;;5029278;28;20483;-84
2021/04/12 08:35:59;;;;;;;19.07;7.30;;;5.00;97.30;;;;;;5002592;28;20411;-86
2021/04/12 08:39:06;;;;;;;10.07;6.00;;;5.10;97.30;;;;;;5014554;28;20450;-85
2021/04/12 08:41:59;;;;;;;9.20;5.63;;;5.10;97.30;;;;;;4935756;29;20827;-86
2021/04/12 08:45:03;;;;;;;10.27;6.80;;;5.10;97.30;;;;;;5030770;28;20479;-85
2021/04/12 08:48:03;;;;;;;9.60;6.10;;;5.20;97.30;;;;;;5014459;28;20448;-84
2021/04/12 08:50:38;;;;;;;14.87;6.00;;;5.10;97.30;;;;;;4917101;29;20935;-86
2021/04/12 08:53:41;;;;;;;8.30;5.93;;;5.10;97.30;;;;;;5000021;28;20425;-86
2021/04/12 08:56:44;;;;;;;9.60;5.83;;;5.10;97.30;;;;;;5015288;28;20841;-85
2021/04/12 08:59:40;;;;;;;9.23;5.20;;;5.10;97.30;;;;;;5011327;28;20454;-85
2021/04/12 09:02:30;;;;;;;8.07;4.97;;;5.20;97.30;;;;;;5016074;28;20424;-85
2021/04/12 09:05:15;;;;;;;8.20;5.10;;;5.40;97.30;;;;;;5016372;28;20466;-84
2021/04/12 09:07:59;;;;;;;11.23;5.20;;;5.40;97.30;;;;;;5015553;28;20435;-85
2021/04/12 09:10:45;;;;;;;8.97;5.50;;;5.40;97.30;;;;;;5015439;28;20454;-84
2021/04/12 09:13:25;;;;;;;12.73;5.07;;;5.30;97.30;;;;;;5016425;28;20933;-85
2021/04/12 09:16:13;;;;;;;10.03;5.13;;;5.30;97.30;;;;;;5015708;28;20422;-85
2021/04/12 09:19:03;;;;;;;11.37;6.60;;;5.40;97.30;;;;;;5034670;28;20430;-86
2021/04/12 09:21:29;;;;;;;9.20;5.30;;;5.50;97.30;;;;;;5016896;28;20428;-85
2021/04/12 09:23:54;;;;;;;8.67;5.23;;;5.60;97.30;;;;;;5016182;28;20493;-84
2021/04/12 09:26:29;;;;;;;7.93;5.40;;;5.60;97.30;;;;;;5016101;28;20674;-83
2021/04/12 09:29:32;;;;;;;10.47;5.43;;;5.50;97.30;;;;;;5014622;28;20188;-86
2021/04/12 09:32:12;;;;;;;10.10;4.47;;;5.40;97.30;;;;;;5013687;28;20964;-85
2021/04/12 09:34:59;;;;;;;9.10;4.63;;;5.30;97.30;;;;;;5014632;28;20426;-85
2021/04/12 09:38:00;;;;;;;9.10;4.50;;;5.30;97.30;;;;;;5030498;28;20454;-84
2021/04/12 09:40:25;;;;;;;7.73;4.67;;;5.30;97.30;;;;;;5013827;28;20418;-86
2021/04/12 09:42:57;;;;;;;10.33;4.70;;;5.20;97.30;;;;;;5013295;28;20432;-85
2021/04/12 09:46:00;;;;;;;6.60;4.57;;;5.20;97.30;;;;;;5013591;28;20184;-84
2021/04/12 09:48:42;;;;;;;8.43;4.87;;;5.10;97.30;;;;;;5032227;28;20462;-82
2021/04/12 09:51:43;;;;;;;7.43;4.50;;;5.10;97.30;;;;;;5017875;28;20445;-84
2021/04/12 09:54:39;;;;;;;9.37;5.40;;;5.20;97.30;;;;;;5033543;28;20402;-84
2021/04/12 09:57:30;;;;;;;8.57;5.27;;;5.30;97.30;;;;;;5016105;28;20492;-84
2021/04/12 10:00:43;;;;;;;14.90;6.57;;;5.30;97.30;;;;;;5014846;28;20942;-85
2021/04/12 10:03:17;;;;;;;11.93;5.80;;;5.30;97.30;;;;;;5014859;28;20509;-85
2021/04/12 10:06:01;;;;;;;14.03;6.20;;;5.40;97.30;;;;;;5014942;28;20433;-83
2021/04/12 10:08:50;;;;;;;9.73;5.27;;;5.40;97.30;;;;;;5014644;28;20434;-85
2021/04/12 10:11:38;;;;;;;10.00;5.20;;;5.50;97.30;;;;;;5031971;28;20506;-86
2021/04/12 10:14:21;;;;;;;7.30;4.40;;;5.50;97.30;;;;;;5014852;28;20411;-85
2021/04/12 10:17:02;;;;;;;9.90;4.90;;;5.40;97.30;;;;;;5032475;28;20764;-85
2021/04/12 10:19:58;;;;;;;16.93;5.57;;;5.40;97.30;;;;;;5014795;28;20439;-81
2021/04/12 10:22:50;;;;;;;16.90;5.47;;;5.50;97.30;;;;;;5013975;28;20930;-84
2021/04/12 10:25:27;;;;;;;6.27;3.97;;;5.60;97.30;;;;;;5019597;28;20415;-85
2021/04/12 10:27:57;;;;;;;8.20;4.40;;;5.60;97.30;;;;;;5018476;28;21247;-83
2021/04/12 10:30:32;;;;;;;10.47;5.33;;;5.70;97.30;;;;;;5018920;28;20993;-84
2021/04/12 10:33:00;;;;;;;8.00;4.53;;;5.90;97.30;;;;;;5018886;28;20839;-85
2021/04/12 10:35:44;;;;;;;9.90;4.87;;;6.00;97.30;;;;;;5018852;28;20794;-84
2021/04/12 10:38:27;;;;;;;10.43;6.10;;;6.10;97.30;;;;;;5020856;28;20439;-85
2021/04/12 10:41:11;;;;;;;13.63;5.77;;;6.30;97.30;;;;;;5040183;28;20902;-85
2021/04/12 10:43:54;;;;;;;6.40;4.33;;;6.50;97.30;;;;;;5019412;28;20463;-84
2021/04/12 10:46:46;;;;;;;7.17;4.40;;;6.70;96.40;;;;;;5031022;28;20438;-85
2021/04/12 10:49:57;;;;;;;8.87;5.37;;;6.80;95.00;;;;;;5036415;28;20949;-84
2021/04/12 10:52:32;;;;;;;9.87;4.97;;;7.00;95.40;;;;;;5042218;28;20852;-84
2021/04/12 10:55:39;;;;;;;7.37;4.10;;;7.30;95.40;;;;;;5023359;28;20406;-85
2021/04/12 10:58:35;;;;;;;9.57;4.30;;;7.50;94.30;;;;;;4973487;28;20438;-84
2021/04/12 11:01:07;;;;;;;9.37;4.40;;;7.50;93.20;;;;;;5037685;28;20403;-84
2021/04/12 11:03:44;;;;;;;5.93;4.50;;;7.40;93.40;;;;;;5020418;28;20537;-84
2021/04/12 11:06:31;;;;;;;8.07;4.03;;;7.20;92.90;;;;;;5020438;28;20418;-84
2021/04/12 11:09:12;;;;;;;9.27;4.57;;;7.10;92.70;;;;;;5019775;28;20470;-85
2021/04/12 11:12:03;;;;;;;9.67;5.30;;;7.00;93.00;;;;;;5037699;28;20924;-85
2021/04/12 11:14:51;;;;;;;9.03;4.53;;;6.90;93.70;;;;;;5020172;28;20419;-85
2021/04/12 11:17:20;;;;;;;6.53;4.33;;;7.00;94.30;;;;;;5037638;28;20440;-84
2021/04/12 11:20:04;;;;;;;8.80;5.00;;;7.00;94.60;;;;;;5037198;28;20407;-84
2021/04/12 11:22:46;;;;;;;8.87;4.43;;;6.90;93.50;;;;;;5019105;28;20898;-85
2021/04/12 11:25:17;;;;;;;9.20;4.00;;;6.60;93.10;;;;;;5018853;28;20494;-85
2021/04/12 11:28:15;;;;;;;7.00;3.50;;;6.40;93.70;;;;;;5018558;28;20435;-84
2021/04/12 11:30:53;;;;;;;4.80;3.50;;;6.30;92.70;;;;;;5018282;28;20403;-84
2021/04/12 11:34:07;;;;;;;9.43;3.13;;;6.30;94.10;;;;;;5018483;28;20457;-84
2021/04/12 11:36:53;;;;;;;6.30;3.80;;;6.40;93.60;;;;;;4999458;28;20423;-84
2021/04/12 11:39:24;;;;;;;13.50;4.40;;;6.40;92.90;;;;;;5036094;28;20427;-84
2021/04/12 11:42:18;;;;;;;15.07;4.50;;;6.50;93.30;;;;;;5036786;28;20901;-84
2021/04/12 11:44:52;;;;;;;7.60;4.30;;;6.60;93.30;;;;;;5033522;28;20463;-85
2021/04/12 11:47:36;;;;;;;9.67;4.00;;;6.70;93.40;;;;;;5028422;28;20415;-84
2021/04/12 11:50:09;;;;;;;12.00;3.90;;;6.70;93.70;;;;;;5018230;28;20774;-84
2021/04/12 11:53:00;;;;;;;7.23;3.60;;;6.60;93.10;;;;;;5018645;28;20473;-84
2021/04/12 11:55:58;;;;;;;12.27;3.93;;;6.60;92.30;;;;;;5018071;28;20415;-85
2021/04/12 11:58:42;;;;;;;8.40;3.80;;;6.60;93.00;;;;;;4964414;28;20431;-84
2021/04/12 12:01:16;;;;;;;10.27;4.33;;;6.60;92.40;;;;;;5017441;28;20403;-84
2021/04/12 12:04:10;;;;;;;5.43;3.70;;;6.50;90.90;;;;;;5017811;28;20454;-84
2021/04/12 12:06:48;;;;;;;4.53;3.57;;;6.50;91.90;;;;;;5022671;28;20757;-85
2021/04/12 12:09:34;;;;;;;8.83;4.40;;;6.60;90.60;;;;;;5017641;28;20439;-84
2021/04/12 12:12:25;;;;;;;6.00;3.90;;;6.60;90.60;;;;;;5033891;28;20493;-84
2021/04/12 12:15:34;;;;;;;6.57;4.50;;;6.70;91.70;;;;;;5016455;28;20418;-84
2021/04/12 12:18:06;;;;;;;9.33;4.43;;;6.90;91.10;;;;;;5016588;28;20486;-85
2021/04/12 12:20:46;;;;;;;13.93;5.73;;;7.10;91.50;;;;;;5017354;28;20472;-85
2021/04/12 12:23:38;;;;;;;7.80;4.40;;;7.30;89.80;;;;;;5016696;28;20447;-85
2021/04/12 12:26:15;;;;;;;9.40;4.50;;;7.60;88.90;;;;;;5023316;28;20465;-84
2021/04/12 12:29:17;;;;;;;16.70;5.10;;;7.90;89.30;;;;;;5023456;22;20521;-85
2021/04/12 12:32:19;;;;;;;7.30;4.10;;;8.30;89.60;;;;;;5008472;28;20465;-85
2021/04/12 12:34:51;;;;;;;13.17;4.20;;;8.40;87.80;;;;;;5013830;28;20451;-84
2021/04/12 12:37:25;;;;;;;5.80;3.80;;;8.20;87.50;;;;;;5017037;28;20462;-84
2021/04/12 12:39:54;;;;;;;9.93;4.83;;;7.90;87.90;;;;;;5015556;28;20426;-85
2021/04/12 12:42:40;;;;;;;7.17;4.33;;;7.70;88.80;;;;;;5014545;28;20538;-85
2021/04/12 12:45:11;;;;;;;6.53;4.10;;;7.60;88.50;;;;;;5014480;28;20443;-84
2021/04/12 12:47:39;;;;;;;6.10;4.30;;;7.50;88.70;;;;;;4979068;28;20443;-85
2021/04/12 12:50:12;;;;;;;5.90;3.80;;;7.50;88.00;;;;;;4972700;28;20461;-85
2021/04/12 12:52:55;;;;;;;7.07;4.07;;;7.40;87.80;;;;;;4975491;28;20471;-85
2021/04/12 12:55:33;;;;;;;4.43;3.73;;;7.40;88.90;;;;;;4978348;28;20792;-85
2021/04/12 12:58:08;;;;;;;9.80;4.10;;;7.50;88.80;;;;;;4994138;28;20558;-84
2021/04/12 13:00:44;;;;;;;6.67;4.30;;;7.50;89.10;;;;;;4991525;28;20445;-85
2021/04/12 13:03:20;;;;;;;7.67;3.73;;;7.50;89.50;;;;;;4996486;28;20456;-85
2021/04/12 13:05:49;;;;;;;8.33;3.67;;;7.50;87.80;;;;;;4985935;28;20430;-83
2021/04/12 13:08:34;;;;;;;5.53;3.67;;;7.60;86.10;;;;;;4968837;28;20534;-85
2021/04/12 13:10:59;;;;;;;3.83;3.30;;;7.60;86.90;;;;;;4961544;28;20445;-86
2021/04/12 13:13:35;;;;;;;7.57;3.87;;;7.60;88.10;;;;;;4975372;28;20451;-85
2021/04/12 13:16:10;;;;;;;8.20;4.57;;;7.60;88.60;;;;;;4964156;28;20767;-85
2021/04/12 13:18:38;;;;;;;5.63;3.60;;;7.70;88.50;;;;;;4975699;28;20436;-85
2021/04/12 13:21:09;;;;;;;6.73;4.20;;;7.60;86.70;;;;;;4975665;28;20416;-86
2021/04/12 13:23:44;;;;;;;7.20;4.20;;;7.60;86.10;;;;;;4975300;28;20828;-85
2021/04/12 13:26:33;;;;;;;10.20;5.03;;;7.60;86.40;;;;;;4975561;28;20409;-85
2021/04/12 13:29:07;;;;;;;7.97;3.70;;;7.70;86.00;;;;;;4979938;28;20496;-84
2021/04/12 13:31:43;;;;;;;9.20;4.10;;;7.90;86.30;;;;;;4992516;28;20404;-83
2021/04/12 13:34:20;;;;;;;5.73;3.80;;;7.90;85.50;;;;;;4974757;28;20436;-87
2021/04/12 13:36:53;;;;;;;9.70;4.50;;;7.90;85.10;;;;;;4990724;28;20519;-85
2021/04/12 13:39:44;;;;;;;5.90;4.60;;;8.00;85.90;;;;;;4990693;28;20524;-85
2021/04/12 13:42:18;;;;;;;5.00;3.83;;;8.00;84.70;;;;;;4974666;28;20428;-85
2021/04/12 13:44:56;;;;;;;12.50;4.43;;;8.00;83.60;;;;;;4974452;28;20971;-83
2021/04/12 13:47:31;;;;;;;7.53;4.50;;;8.00;82.80;;;;;;4998459;28;20415;-86
2021/04/12 13:50:09;;;;;;;8.03;4.30;;;8.00;83.60;;;;;;4995272;28;20458;-85
2021/04/12 13:52:36;;;;;;;10.60;5.20;;;8.10;84.40;;;;;;4994661;28;20422;-84
2021/04/12 13:55:14;;;;;;;8.90;6.50;;;8.00;84.60;;;;;;4993551;28;20412;-84
2021/04/12 13:57:52;;;;;;;6.63;4.87;;;7.90;84.20;;;;;;4993937;28;20531;-85
2021/04/12 14:00:32;;;;;;;20.57;12.27;;;7.90;85.20;;;;;;5013044;28;20404;-85
2021/04/12 14:03:23;;;;;;;7.33;5.70;;;7.80;86.50;;;;;;4995488;28;20423;-85
2021/04/12 14:06:13;;;;;;;13.70;9.20;;;7.70;86.00;;;;;;4994262;28;20472;-86
2021/04/12 14:08:50;;;;;;;8.83;4.53;;;7.60;86.30;;;;;;4994767;28;20443;-85
2021/04/12 14:11:28;;;;;;;10.70;5.10;;;7.60;86.40;;;;;;5011373;28;20444;-85
2021/04/12 14:14:17;;;;;;;11.63;6.00;;;7.60;87.40;;;;;;4995959;28;20412;-85
2021/04/12 14:16:44;;;;;;;17.60;9.70;;;7.70;87.10;;;;;;4987690;28;20483;-85
2021/04/12 14:19:23;;;;;;;6.90;5.07;;;7.60;84.50;;;;;;4977471;28;20451;-85
2021/04/12 14:21:50;;;;;;;5.03;3.30;;;7.70;84.80;;;;;;4971406;28;20786;-86
2021/04/12 14:24:34;;;;;;;12.33;7.10;;;7.70;84.00;;;;;;4989701;28;20525;-90